createdAt,value
2023-05-20T00:00:45.692Z,35.04
2023-05-20T00:01:45.752Z,35.04
2023-05-20T00:02:45.934Z,35.03
2023-05-20T00:03:46.084Z,35.03
2023-05-20T00:04:45.986Z,35.02
2023-05-20T00:05:46.008Z,35.05
2023-05-20T00:06:46.108Z,35.04
2023-05-20T00:07:46.133Z,35.03
2023-05-20T00:08:46.180Z,35.03
2023-05-20T00:09:46.259Z,35.03
2023-05-20T00:10:46.298Z,35.06
2023-05-20T00:11:46.349Z,35.05
2023-05-20T00:12:46.498Z,35.06
2023-05-20T00:13:46.465Z,35.05
2023-05-20T00:14:46.528Z,35.06
2023-05-20T00:15:46.582Z,35.08
2023-05-20T00:16:46.742Z,35.07
2023-05-20T00:17:46.718Z,35.05
2023-05-20T00:18:46.823Z,35.07
2023-05-20T00:19:46.821Z,35.06
2023-05-20T00:20:46.856Z,35.05
2023-05-20T00:21:46.913Z,35.09
2023-05-20T00:22:47.002Z,35.07
2023-05-20T00:23:47.040Z,35.05
2023-05-20T00:24:47.083Z,35.08
2023-05-20T00:25:47.142Z,35.07
2023-05-20T00:26:47.188Z,35.09
2023-05-20T00:27:47.258Z,35.06
2023-05-20T00:28:47.333Z,35.10
2023-05-20T00:29:47.372Z,35.08
2023-05-20T00:30:47.423Z,35.09
2023-05-20T00:31:47.532Z,35.11
2023-05-20T00:32:47.553Z,35.10
2023-05-20T00:33:47.614Z,35.08
2023-05-20T00:34:47.662Z,35.12
2023-05-20T00:35:47.717Z,35.12
2023-05-20T00:36:47.783Z,35.12
2023-05-20T00:37:47.851Z,35.11
2023-05-20T00:38:47.917Z,35.11
2023-05-20T00:39:47.958Z,35.11
2023-05-20T00:40:48.028Z,35.12
2023-05-20T00:41:48.101Z,35.14
2023-05-20T00:42:48.154Z,35.11
2023-05-20T00:43:48.214Z,35.13
2023-05-20T00:44:48.279Z,35.11
2023-05-20T00:45:48.332Z,35.13
2023-05-20T00:46:48.365Z,35.12
2023-05-20T00:47:48.455Z,35.14
2023-05-20T00:48:48.482Z,35.12
2023-05-20T00:49:50.310Z,35.17
2023-05-20T00:50:48.592Z,35.14
2023-05-20T00:51:48.650Z,35.17
2023-05-20T00:52:48.684Z,35.13
2023-05-20T00:53:48.816Z,35.14
2023-05-20T00:54:48.813Z,35.15
2023-05-20T00:55:48.856Z,35.15
2023-05-20T00:56:48.922Z,35.15
2023-05-20T00:57:48.981Z,35.17
2023-05-20T00:58:49.045Z,35.16
2023-05-20T00:59:49.111Z,35.17
2023-05-20T01:00:49.150Z,35.18
2023-05-20T01:01:49.265Z,35.16
2023-05-20T01:02:49.300Z,35.18
2023-05-20T01:03:49.378Z,35.17
2023-05-20T01:04:49.387Z,35.18
2023-05-20T01:05:49.456Z,35.18
2023-05-20T01:06:49.506Z,35.19
2023-05-20T01:07:49.578Z,35.16
2023-05-20T01:08:49.654Z,35.17
2023-05-20T01:09:49.698Z,35.18
2023-05-20T01:10:49.677Z,35.20
2023-05-20T01:11:49.677Z,35.19
2023-05-20T01:12:49.658Z,35.19
2023-05-20T01:13:49.667Z,35.20
2023-05-20T01:14:49.643Z,35.21
2023-05-20T01:15:49.674Z,35.20
2023-05-20T01:16:49.631Z,35.21
2023-05-20T01:17:49.637Z,35.20
2023-05-20T01:18:49.682Z,35.21
2023-05-20T01:19:49.728Z,35.20
2023-05-20T01:20:49.786Z,35.20
2023-05-20T01:21:49.841Z,35.22
2023-05-20T01:22:49.895Z,35.22
2023-05-20T01:23:49.964Z,35.19
2023-05-20T01:24:50.023Z,35.23
2023-05-20T01:25:50.086Z,35.21
2023-05-20T01:26:50.132Z,35.22
2023-05-20T01:27:50.206Z,35.24
2023-05-20T01:28:50.265Z,35.24
2023-05-20T01:29:50.372Z,35.23
2023-05-20T01:30:50.370Z,35.22
2023-05-20T01:31:50.517Z,35.24
2023-05-20T01:32:50.540Z,35.24
2023-05-20T01:33:50.548Z,35.25
2023-05-20T01:34:50.606Z,35.23
2023-05-20T01:35:50.654Z,35.25
2023-05-20T01:36:50.717Z,35.27
2023-05-20T01:37:50.777Z,35.25
2023-05-20T01:38:50.813Z,35.23
2023-05-20T01:39:50.873Z,35.24
2023-05-20T01:40:50.931Z,35.25
2023-05-20T01:41:50.996Z,35.27
2023-05-20T01:42:51.033Z,35.25
2023-05-20T01:43:51.112Z,35.25
2023-05-20T01:44:51.155Z,35.26
2023-05-20T01:45:51.225Z,35.24
2023-05-20T01:46:51.320Z,35.25
2023-05-20T01:47:51.416Z,35.26
2023-05-20T01:48:51.417Z,35.26
2023-05-20T01:49:51.431Z,35.26
2023-05-20T01:50:51.475Z,35.25
2023-05-20T01:51:51.531Z,35.25
2023-05-20T01:52:51.590Z,35.27
2023-05-20T01:53:51.662Z,35.26
2023-05-20T01:54:51.702Z,35.28
2023-05-20T01:55:51.781Z,35.28
2023-05-20T01:56:51.854Z,35.26
2023-05-20T01:57:51.901Z,35.26
2023-05-20T01:58:51.965Z,35.26
2023-05-20T01:59:52.050Z,35.26
2023-05-20T02:00:52.124Z,35.30
2023-05-20T02:01:52.254Z,35.29
2023-05-20T02:02:52.273Z,35.29
2023-05-20T02:03:52.301Z,35.27
2023-05-20T02:04:52.334Z,35.27
2023-05-20T02:05:52.467Z,35.28
2023-05-20T02:06:52.463Z,35.29
2023-05-20T02:07:52.529Z,35.29
2023-05-20T02:08:52.606Z,35.29
2023-05-20T02:09:52.653Z,35.32
2023-05-20T02:10:52.715Z,35.32
2023-05-20T02:11:52.792Z,35.31
2023-05-20T02:12:52.848Z,35.31
2023-05-20T02:13:52.909Z,35.30
2023-05-20T02:14:52.976Z,35.31
2023-05-20T02:15:53.036Z,35.29
2023-05-20T02:16:53.256Z,35.31
2023-05-20T02:17:53.166Z,35.31
2023-05-20T02:18:53.295Z,35.32
2023-05-20T02:19:53.296Z,35.30
2023-05-20T02:20:53.345Z,35.33
2023-05-20T02:21:53.404Z,35.32
2023-05-20T02:22:53.466Z,35.33
2023-05-20T02:23:53.575Z,35.33
2023-05-20T02:24:53.618Z,35.33
2023-05-20T02:25:53.673Z,35.33
2023-05-20T02:26:53.735Z,35.31
2023-05-20T02:27:53.808Z,35.32
2023-05-20T02:28:53.875Z,35.34
2023-05-20T02:29:53.932Z,35.33
2023-05-20T02:30:53.987Z,35.32
2023-05-20T02:31:54.046Z,35.33
2023-05-20T02:32:54.167Z,35.36
2023-05-20T02:33:54.230Z,35.35
2023-05-20T02:34:54.226Z,35.33
2023-05-20T02:35:54.260Z,35.34
2023-05-20T02:36:54.351Z,35.34
2023-05-20T02:37:54.401Z,35.35
2023-05-20T02:38:54.466Z,35.34
2023-05-20T02:39:54.522Z,35.36
2023-05-20T02:40:54.553Z,35.32
2023-05-20T02:41:54.615Z,35.34
2023-05-20T02:42:54.675Z,35.34
2023-05-20T02:43:54.723Z,35.36
2023-05-20T02:44:54.786Z,35.36
2023-05-20T02:45:54.934Z,35.36
2023-05-20T02:46:54.941Z,35.33
2023-05-20T02:47:55.026Z,35.15
2023-05-20T02:48:55.035Z,35.04
2023-05-20T02:49:55.097Z,35.06
2023-05-20T02:50:55.155Z,34.51
2023-05-20T02:51:55.198Z,34.21
2023-05-20T02:52:55.267Z,33.86
2023-05-20T02:53:55.316Z,33.68
2023-05-20T02:54:55.360Z,33.58
2023-05-20T02:55:55.421Z,33.58
2023-05-20T02:56:55.465Z,33.49
2023-05-20T02:57:55.573Z,33.40
2023-05-20T02:58:55.639Z,33.26
2023-05-20T02:59:55.665Z,33.21
2023-05-20T03:00:55.761Z,33.14
2023-05-20T03:01:55.792Z,33.09
2023-05-20T03:02:55.774Z,32.95
2023-05-20T03:03:55.819Z,32.94
2023-05-20T03:04:55.884Z,32.86
2023-05-20T03:05:55.771Z,32.86
2023-05-20T03:06:55.773Z,32.81
2023-05-20T03:07:55.779Z,32.80
2023-05-20T03:08:55.787Z,32.77
2023-05-20T03:09:55.796Z,32.68
2023-05-20T03:10:55.798Z,32.63
2023-05-20T03:11:55.824Z,32.58
2023-05-20T03:12:55.836Z,32.47
2023-05-20T03:13:55.841Z,32.44
2023-05-20T03:14:55.835Z,32.40
2023-05-20T03:15:55.896Z,32.39
2023-05-20T03:16:55.857Z,32.38
2023-05-20T03:17:55.904Z,32.32
2023-05-20T03:18:55.971Z,32.30
2023-05-20T03:19:55.904Z,32.27
2023-05-20T03:20:55.929Z,32.22
2023-05-20T03:21:55.951Z,32.16
2023-05-20T03:22:55.974Z,32.17
2023-05-20T03:23:55.998Z,32.15
2023-05-20T03:24:56.022Z,32.03
2023-05-20T03:25:56.048Z,32.03
2023-05-20T03:26:56.066Z,32.05
2023-05-20T03:27:56.115Z,31.99
2023-05-20T03:28:56.131Z,31.98
2023-05-20T03:29:56.123Z,32.01
2023-05-20T03:30:56.196Z,32.00
2023-05-20T03:31:56.172Z,32.05
2023-05-20T03:32:56.280Z,32.06
2023-05-20T03:33:56.256Z,32.07
2023-05-20T03:34:56.276Z,32.07
2023-05-20T03:35:56.293Z,32.08
2023-05-20T03:36:56.335Z,32.09
2023-05-20T03:37:56.405Z,32.09
2023-05-20T03:38:56.387Z,32.06
2023-05-20T03:39:56.412Z,32.06
2023-05-20T03:40:56.455Z,32.03
2023-05-20T03:41:56.468Z,32.10
2023-05-20T03:42:56.509Z,32.11
2023-05-20T03:43:56.539Z,32.13
2023-05-20T03:44:56.573Z,32.11
2023-05-20T03:45:56.599Z,32.09
2023-05-20T03:46:56.779Z,32.06
2023-05-20T03:47:56.709Z,32.03
2023-05-20T03:48:56.725Z,32.02
2023-05-20T03:49:56.760Z,32.00
2023-05-20T03:50:56.771Z,31.98
2023-05-20T03:51:56.811Z,31.99
2023-05-20T03:52:56.855Z,31.95
2023-05-20T03:53:56.908Z,31.97
2023-05-20T03:54:56.931Z,31.94
2023-05-20T03:55:56.966Z,31.99
2023-05-20T03:56:57.013Z,31.95
2023-05-20T03:57:57.049Z,31.95
2023-05-20T03:58:57.095Z,31.91
2023-05-20T03:59:57.115Z,31.87
2023-05-20T04:00:57.156Z,31.80
2023-05-20T04:01:57.278Z,31.80
2023-05-20T04:02:57.300Z,31.74
2023-05-20T04:03:57.283Z,31.75
2023-05-20T04:04:57.235Z,31.78
2023-05-20T04:05:57.248Z,31.73
2023-05-20T04:06:57.235Z,31.75
2023-05-20T04:07:57.236Z,31.76
2023-05-20T04:08:57.228Z,31.76
2023-05-20T04:09:57.214Z,31.81
2023-05-20T04:10:57.270Z,31.83
2023-05-20T04:11:57.218Z,31.86
2023-05-20T04:12:57.340Z,31.88
2023-05-20T04:13:57.224Z,31.88
2023-05-20T04:14:57.245Z,31.86
2023-05-20T04:15:57.218Z,31.83
2023-05-20T04:16:57.338Z,31.84
2023-05-20T04:17:57.275Z,31.86
2023-05-20T04:18:57.309Z,31.83
2023-05-20T04:19:57.307Z,31.83
2023-05-20T04:20:57.349Z,31.85
2023-05-20T04:21:57.394Z,31.84
2023-05-20T04:22:57.431Z,31.81
2023-05-20T04:23:57.532Z,31.83
2023-05-20T04:24:57.500Z,31.82
2023-05-20T04:25:57.542Z,31.73
2023-05-20T04:26:57.588Z,31.74
2023-05-20T04:27:57.809Z,31.78
2023-05-20T04:28:57.669Z,31.74
2023-05-20T04:29:57.696Z,31.70
2023-05-20T04:30:57.761Z,31.74
2023-05-20T04:31:57.836Z,31.75
2023-05-20T04:32:57.906Z,31.81
2023-05-20T04:33:57.881Z,31.79
2023-05-20T04:34:57.933Z,31.79
2023-05-20T04:35:57.965Z,31.78
2023-05-20T04:36:58.051Z,31.78
2023-05-20T04:37:58.047Z,31.78
2023-05-20T04:38:58.088Z,31.81
2023-05-20T04:39:58.123Z,31.82
2023-05-20T04:40:58.246Z,31.87
2023-05-20T04:41:58.204Z,31.88
2023-05-20T04:42:58.246Z,31.89
2023-05-20T04:43:58.271Z,31.83
2023-05-20T04:44:58.345Z,31.84
2023-05-20T04:45:58.342Z,31.85
2023-05-20T04:46:58.355Z,31.85
2023-05-20T04:47:58.414Z,31.87
2023-05-20T04:48:58.424Z,31.79
2023-05-20T04:49:58.463Z,31.98
2023-05-20T04:50:58.507Z,31.87
2023-05-20T04:51:58.527Z,31.91
2023-05-20T04:52:58.540Z,31.84
2023-05-20T04:53:58.519Z,31.91
2023-05-20T04:54:58.522Z,31.86
2023-05-20T04:55:58.519Z,31.97
2023-05-20T04:56:58.538Z,31.89
2023-05-20T04:57:58.527Z,31.86
2023-05-20T04:58:58.520Z,31.89
2023-05-20T04:59:58.517Z,31.87
2023-05-20T05:00:58.515Z,31.87
2023-05-20T05:01:58.610Z,31.93
2023-05-20T05:02:58.558Z,31.98
2023-05-20T05:03:58.523Z,32.04
2023-05-20T05:04:58.602Z,32.07
2023-05-20T05:05:58.548Z,32.08
2023-05-20T05:06:58.621Z,32.13
2023-05-20T05:07:58.648Z,32.17
2023-05-20T05:08:58.711Z,32.21
2023-05-20T05:09:58.741Z,32.18
2023-05-20T05:10:58.812Z,32.18
2023-05-20T05:11:58.864Z,32.08
2023-05-20T05:12:58.898Z,32.18
2023-05-20T05:13:58.971Z,32.15
2023-05-20T05:14:59.053Z,32.09
2023-05-20T05:15:59.099Z,32.02
2023-05-20T05:16:59.139Z,31.99
2023-05-20T05:17:59.212Z,31.98
2023-05-20T05:18:59.261Z,32.06
2023-05-20T05:19:59.277Z,32.04
2023-05-20T05:20:59.336Z,31.97
2023-05-20T05:21:59.385Z,31.96
2023-05-20T05:22:59.450Z,31.91
2023-05-20T05:23:59.521Z,31.97
2023-05-20T05:24:59.547Z,31.97
2023-05-20T05:25:59.616Z,32.00
2023-05-20T05:26:59.662Z,31.99
2023-05-20T05:27:59.717Z,31.95
2023-05-20T05:28:59.777Z,32.00
2023-05-20T05:29:59.843Z,31.91
2023-05-20T05:30:59.889Z,31.96
2023-05-20T05:32:00.006Z,31.98
2023-05-20T05:33:00.159Z,31.97
2023-05-20T05:34:00.049Z,31.91
2023-05-20T05:35:00.148Z,31.92
2023-05-20T05:36:00.180Z,31.90
2023-05-20T05:37:00.248Z,31.90
2023-05-20T05:38:00.294Z,31.96
2023-05-20T05:39:00.356Z,31.90
2023-05-20T05:40:00.421Z,32.03
2023-05-20T05:41:00.480Z,31.97
2023-05-20T05:42:00.550Z,31.94
2023-05-20T05:43:00.610Z,32.03
2023-05-20T05:44:00.659Z,31.94
2023-05-20T05:45:00.709Z,31.96
2023-05-20T05:46:00.769Z,31.98
2023-05-20T05:47:00.889Z,31.88
2023-05-20T05:48:00.971Z,31.95
2023-05-20T05:49:00.933Z,31.86
2023-05-20T05:50:00.978Z,31.96
2023-05-20T05:51:01.044Z,31.89
2023-05-20T05:52:01.108Z,31.93
2023-05-20T05:53:01.162Z,31.87
2023-05-20T05:54:01.200Z,31.98
2023-05-20T05:55:01.277Z,31.93
2023-05-20T05:56:01.313Z,31.93
2023-05-20T05:57:01.396Z,31.89
2023-05-20T05:58:01.450Z,31.96
2023-05-20T05:59:01.512Z,31.96
2023-05-20T06:00:01.572Z,31.99
2023-05-20T06:01:01.670Z,32.08
2023-05-20T06:02:01.756Z,32.04
2023-05-20T06:03:01.832Z,31.97
2023-05-20T06:04:01.911Z,31.94
2023-05-20T06:05:01.901Z,31.91
2023-05-20T06:06:01.956Z,31.88
2023-05-20T06:07:02.042Z,31.84
2023-05-20T06:08:02.070Z,31.77
2023-05-20T06:09:02.136Z,31.79
2023-05-20T06:10:02.196Z,31.78
2023-05-20T06:11:02.238Z,31.81
2023-05-20T06:12:02.298Z,31.82
2023-05-20T06:13:02.361Z,31.97
2023-05-20T06:14:02.417Z,31.94
2023-05-20T06:15:02.470Z,31.91
2023-05-20T06:16:02.527Z,31.88
2023-05-20T06:17:02.707Z,31.84
2023-05-20T06:18:02.755Z,31.83
2023-05-20T06:19:03.769Z,31.93
2023-05-20T06:20:02.759Z,31.93
2023-05-20T06:21:02.826Z,31.88
2023-05-20T06:22:02.775Z,32.00
2023-05-20T06:23:02.764Z,32.04
2023-05-20T06:24:02.754Z,32.00
2023-05-20T06:25:02.768Z,31.92
2023-05-20T06:26:02.767Z,31.83
2023-05-20T06:27:02.769Z,31.95
2023-05-20T06:28:02.950Z,31.91
2023-05-20T06:29:02.787Z,31.86
2023-05-20T06:30:02.793Z,31.78
2023-05-20T06:31:02.864Z,31.81
2023-05-20T06:32:02.867Z,31.76
2023-05-20T06:33:02.976Z,31.68
2023-05-20T06:34:02.932Z,31.62
2023-05-20T06:35:02.929Z,31.86
2023-05-20T06:36:02.950Z,31.75
2023-05-20T06:37:02.907Z,31.79
2023-05-20T06:38:02.979Z,31.91
2023-05-20T06:39:02.935Z,31.85
2023-05-20T06:40:02.946Z,31.90
2023-05-20T06:41:02.997Z,32.02
2023-05-20T06:42:02.963Z,31.82
2023-05-20T06:43:02.973Z,31.74
2023-05-20T06:44:02.987Z,31.61
2023-05-20T06:45:02.979Z,31.55
2023-05-20T06:46:03.038Z,31.53
2023-05-20T06:47:03.000Z,31.46
2023-05-20T06:48:03.127Z,31.46
2023-05-20T06:49:03.025Z,31.50
2023-05-20T06:50:03.033Z,31.66
2023-05-20T06:51:03.046Z,31.73
2023-05-20T06:52:03.062Z,31.81
2023-05-20T06:53:03.084Z,31.89
2023-05-20T06:54:03.083Z,31.96
2023-05-20T06:55:03.085Z,31.90
2023-05-20T06:56:03.104Z,32.00
2023-05-20T06:57:03.128Z,31.87
2023-05-20T06:58:03.155Z,31.73
2023-05-20T06:59:03.222Z,31.63
2023-05-20T07:00:03.261Z,31.57
2023-05-20T07:01:03.296Z,31.55
2023-05-20T07:02:03.435Z,31.49
2023-05-20T07:03:03.527Z,31.53
2023-05-20T07:04:03.474Z,31.51
2023-05-20T07:05:03.456Z,31.61
2023-05-20T07:06:03.495Z,31.74
2023-05-20T07:07:03.542Z,31.84
2023-05-20T07:08:03.601Z,31.76
2023-05-20T07:09:03.643Z,31.74
2023-05-20T07:10:03.697Z,31.70
2023-05-20T07:11:03.741Z,31.60
2023-05-20T07:12:03.798Z,31.58
2023-05-20T07:13:03.826Z,31.59
2023-05-20T07:14:03.864Z,31.53
2023-05-20T07:15:03.901Z,31.53
2023-05-20T07:16:03.989Z,31.54
2023-05-20T07:17:03.965Z,31.53
2023-05-20T07:18:04.054Z,31.53
2023-05-20T07:19:04.073Z,31.55
2023-05-20T07:20:04.081Z,31.56
2023-05-20T07:21:04.102Z,31.54
2023-05-20T07:22:04.144Z,31.50
2023-05-20T07:23:04.147Z,31.71
2023-05-20T07:24:04.233Z,31.56
2023-05-20T07:25:04.205Z,31.58
2023-05-20T07:26:04.242Z,31.61
2023-05-20T07:27:04.262Z,31.59
2023-05-20T07:28:04.312Z,31.63
2023-05-20T07:29:04.327Z,31.60
2023-05-20T07:30:04.381Z,31.60
2023-05-20T07:31:04.382Z,31.61
2023-05-20T07:32:04.501Z,31.60
2023-05-20T07:33:04.458Z,31.65
2023-05-20T07:34:04.470Z,31.57
2023-05-20T07:35:04.505Z,31.53
2023-05-20T07:36:04.524Z,31.52
2023-05-20T07:37:04.550Z,31.54
2023-05-20T07:38:04.576Z,31.55
2023-05-20T07:39:07.262Z,31.55
2023-05-20T07:40:05.619Z,31.61
2023-05-20T07:41:04.611Z,31.58
2023-05-20T07:42:04.627Z,31.65
2023-05-20T07:43:04.627Z,31.62
2023-05-20T07:44:04.638Z,31.62
2023-05-20T07:45:04.664Z,31.63
2023-05-20T07:46:04.736Z,31.65
2023-05-20T07:47:04.651Z,31.60
2023-05-20T07:48:04.707Z,31.61
2023-05-20T07:49:04.679Z,31.59
2023-05-20T07:50:04.721Z,31.60
2023-05-20T07:51:04.693Z,31.56
2023-05-20T07:52:04.705Z,31.52
2023-05-20T07:53:04.710Z,31.56
2023-05-20T07:54:04.746Z,31.48
2023-05-20T07:55:04.722Z,31.44
2023-05-20T07:56:04.728Z,31.48
2023-05-20T07:57:04.749Z,31.43
2023-05-20T07:58:04.729Z,31.45
2023-05-20T07:59:04.756Z,31.43
2023-05-20T08:00:04.745Z,31.37
2023-05-20T08:01:04.746Z,31.34
2023-05-20T08:02:04.801Z,31.35
2023-05-20T08:03:04.911Z,31.35
2023-05-20T08:04:04.883Z,31.34
2023-05-20T08:05:04.783Z,31.35
2023-05-20T08:06:04.807Z,31.37
2023-05-20T08:07:04.836Z,31.39
2023-05-20T08:08:04.854Z,31.41
2023-05-20T08:09:04.886Z,31.36
2023-05-20T08:10:04.894Z,31.31
2023-05-20T08:11:04.909Z,31.30
2023-05-20T08:12:04.961Z,31.26
2023-05-20T08:13:04.949Z,31.29
2023-05-20T08:14:05.001Z,31.29
2023-05-20T08:15:04.999Z,31.24
2023-05-20T08:16:05.024Z,31.38
2023-05-20T08:17:05.051Z,31.28
2023-05-20T08:18:05.136Z,31.20
2023-05-20T08:19:05.188Z,31.20
2023-05-20T08:20:05.075Z,31.21
2023-05-20T08:21:05.086Z,31.23
2023-05-20T08:22:05.094Z,31.17
2023-05-20T08:23:05.107Z,31.10
2023-05-20T08:24:05.121Z,31.18
2023-05-20T08:25:05.114Z,31.08
2023-05-20T08:26:05.126Z,31.11
2023-05-20T08:27:05.119Z,31.11
2023-05-20T08:28:05.120Z,31.16
2023-05-20T08:29:05.140Z,31.11
2023-05-20T08:30:05.127Z,31.11
2023-05-20T08:31:05.156Z,31.19
2023-05-20T08:32:05.140Z,31.13
2023-05-20T08:33:05.159Z,31.14
2023-05-20T08:34:05.177Z,31.11
2023-05-20T08:35:05.160Z,31.06
2023-05-20T08:36:05.157Z,31.05
2023-05-20T08:37:05.174Z,31.06
2023-05-20T08:38:05.167Z,31.30
2023-05-20T08:39:05.168Z,31.17
2023-05-20T08:40:05.173Z,31.16
2023-05-20T08:41:05.187Z,31.12
2023-05-20T08:42:05.172Z,31.17
2023-05-20T08:43:05.164Z,31.32
2023-05-20T08:44:05.173Z,31.22
2023-05-20T08:45:05.226Z,31.23
2023-05-20T08:46:05.276Z,31.20
2023-05-20T08:47:05.199Z,31.20
2023-05-20T08:48:05.250Z,31.23
2023-05-20T08:49:05.204Z,31.27
2023-05-20T08:50:05.199Z,31.53
2023-05-20T08:51:05.203Z,31.63
2023-05-20T08:52:05.223Z,31.69
2023-05-20T08:53:05.239Z,31.73
2023-05-20T08:54:05.267Z,31.76
2023-05-20T08:55:05.277Z,31.79
2023-05-20T08:56:05.312Z,31.81
2023-05-20T08:57:05.313Z,31.83
2023-05-20T08:58:05.329Z,31.83
2023-05-20T08:59:05.416Z,31.86
2023-05-20T09:00:05.355Z,31.87
2023-05-20T09:01:05.361Z,31.90
2023-05-20T09:02:05.423Z,31.95
2023-05-20T09:03:05.460Z,31.99
2023-05-20T09:04:05.416Z,32.03
2023-05-20T09:05:05.468Z,32.03
2023-05-20T09:06:05.419Z,32.08
2023-05-20T09:07:05.423Z,32.05
2023-05-20T09:08:05.543Z,32.13
2023-05-20T09:09:05.445Z,32.14
2023-05-20T09:10:05.430Z,32.15
2023-05-20T09:11:05.426Z,32.15
2023-05-20T09:12:05.432Z,32.17
2023-05-20T09:13:05.422Z,32.17
2023-05-20T09:14:05.449Z,32.20
2023-05-20T09:15:05.431Z,32.24
2023-05-20T09:16:05.464Z,32.25
2023-05-20T09:17:05.427Z,32.26
2023-05-20T09:18:05.442Z,32.27
2023-05-20T09:19:05.446Z,32.32
2023-05-20T09:20:05.409Z,32.30
2023-05-20T09:21:05.388Z,32.32
2023-05-20T09:22:05.401Z,32.31
2023-05-20T09:23:05.399Z,32.33
2023-05-20T09:24:05.409Z,32.33
2023-05-20T09:25:05.399Z,32.36
2023-05-20T09:26:05.387Z,32.39
2023-05-20T09:27:05.372Z,32.40
2023-05-20T09:28:05.366Z,32.39
2023-05-20T09:29:05.401Z,32.41
2023-05-20T09:30:05.472Z,32.43
2023-05-20T09:31:05.415Z,32.43
2023-05-20T09:32:05.619Z,32.43
2023-05-20T09:33:05.687Z,32.46
2023-05-20T09:34:05.607Z,32.45
2023-05-20T09:35:05.654Z,32.48
2023-05-20T09:36:05.700Z,32.47
2023-05-20T09:37:05.761Z,32.48
2023-05-20T09:38:05.833Z,32.47
2023-05-20T09:39:05.917Z,32.52
2023-05-20T09:40:05.954Z,32.51
2023-05-20T09:41:06.012Z,32.50
2023-05-20T09:42:06.132Z,32.49
2023-05-20T09:43:06.147Z,32.48
2023-05-20T09:44:06.236Z,32.49
2023-05-20T09:45:06.262Z,32.48
2023-05-20T09:46:06.370Z,32.49
2023-05-20T09:47:08.377Z,32.50
2023-05-20T09:48:06.488Z,32.51
2023-05-20T09:49:06.568Z,32.53
2023-05-20T09:50:06.582Z,32.55
2023-05-20T09:51:06.617Z,32.54
2023-05-20T09:52:06.650Z,32.56
2023-05-20T09:53:06.689Z,32.56
2023-05-20T09:54:06.740Z,32.58
2023-05-20T09:55:06.825Z,32.57
2023-05-20T09:56:06.904Z,32.58
2023-05-20T09:57:06.952Z,32.61
2023-05-20T09:58:07.024Z,32.61
2023-05-20T09:59:07.086Z,32.59
2023-05-20T10:00:07.157Z,32.62
2023-05-20T10:01:07.276Z,32.61
2023-05-20T10:02:07.324Z,32.60
2023-05-20T10:03:07.413Z,32.62
2023-05-20T10:04:07.435Z,32.65
2023-05-20T10:05:07.550Z,32.64
2023-05-20T10:06:07.552Z,32.64
2023-05-20T10:07:07.616Z,32.66
2023-05-20T10:08:07.675Z,32.67
2023-05-20T10:09:07.743Z,32.66
2023-05-20T10:10:07.839Z,32.67
2023-05-20T10:11:07.860Z,32.65
2023-05-20T10:12:07.932Z,32.66
2023-05-20T10:13:07.989Z,32.67
2023-05-20T10:14:08.066Z,32.68
2023-05-20T10:15:08.098Z,32.70
2023-05-20T10:16:08.253Z,32.67
2023-05-20T10:17:08.222Z,32.68
2023-05-20T10:18:08.284Z,32.69
2023-05-20T10:19:08.437Z,32.70
2023-05-20T10:20:08.392Z,32.70
2023-05-20T10:21:08.417Z,32.70
2023-05-20T10:22:08.474Z,32.71
2023-05-20T10:23:08.532Z,32.70
2023-05-20T10:24:08.600Z,32.69
2023-05-20T10:25:08.636Z,32.70
2023-05-20T10:26:08.675Z,32.71
2023-05-20T10:27:08.671Z,32.71
2023-05-20T10:28:08.677Z,32.72
2023-05-20T10:29:10.892Z,32.74
2023-05-20T10:30:08.652Z,32.74
2023-05-20T10:31:08.637Z,32.76
2023-05-20T10:32:08.662Z,32.74
2023-05-20T10:33:08.657Z,32.71
2023-05-20T10:34:08.613Z,32.73
2023-05-20T10:35:08.596Z,32.75
2023-05-20T10:36:08.578Z,32.73
2023-05-20T10:37:08.593Z,32.72
2023-05-20T10:38:08.583Z,32.72
2023-05-20T10:39:08.558Z,32.72
2023-05-20T10:40:08.572Z,32.73
2023-05-20T10:41:08.539Z,32.75
2023-05-20T10:42:08.550Z,32.75
2023-05-20T10:43:08.520Z,32.77
2023-05-20T10:44:08.557Z,32.75
2023-05-20T10:45:08.593Z,32.76
2023-05-20T10:46:17.090Z,32.77
2023-05-20T10:47:24.580Z,32.81
2023-05-20T10:48:09.670Z,32.82
2023-05-20T10:49:08.709Z,32.79
2023-05-20T10:50:08.564Z,32.79
2023-05-20T10:51:08.556Z,32.80
2023-05-20T10:52:08.536Z,32.79
2023-05-20T10:53:15.736Z,32.79
2023-05-20T10:54:09.536Z,32.80
2023-05-20T10:55:08.532Z,32.79
2023-05-20T10:56:08.535Z,32.79
2023-05-20T10:57:08.507Z,32.77
2023-05-20T10:58:08.505Z,32.77
2023-05-20T10:59:08.502Z,32.79
2023-05-20T11:00:08.486Z,32.78
2023-05-20T11:01:08.545Z,32.78
2023-05-20T11:02:08.480Z,32.79
2023-05-20T11:03:08.507Z,32.79
2023-05-20T11:04:08.578Z,32.79
2023-05-20T11:05:08.466Z,32.81
2023-05-20T11:06:08.445Z,32.82
2023-05-20T11:07:08.449Z,32.82
2023-05-20T11:08:20.564Z,32.83
2023-05-20T11:09:09.611Z,32.84
2023-05-20T11:10:08.443Z,32.83
2023-05-20T11:11:08.423Z,32.85
2023-05-20T11:12:08.416Z,32.85
2023-05-20T11:13:08.432Z,32.84
2023-05-20T11:14:08.396Z,32.85
2023-05-20T11:15:08.379Z,32.81
2023-05-20T11:16:08.465Z,32.83
2023-05-20T11:17:08.495Z,32.82
2023-05-20T11:18:08.413Z,32.83
2023-05-20T11:19:08.422Z,32.86
2023-05-20T11:20:08.381Z,32.87
2023-05-20T11:21:08.358Z,32.86
2023-05-20T11:22:08.440Z,32.86
2023-05-20T11:23:08.460Z,32.88
2023-05-20T11:24:08.509Z,32.88
2023-05-20T11:25:08.534Z,32.91
2023-05-20T11:26:08.567Z,32.93
2023-05-20T11:27:08.616Z,32.91
2023-05-20T11:28:08.644Z,32.96
2023-05-20T11:29:08.677Z,32.97
2023-05-20T11:30:08.708Z,32.96
2023-05-20T11:31:08.763Z,32.96
2023-05-20T11:32:08.824Z,32.98
2023-05-20T11:33:08.863Z,32.98
2023-05-20T11:34:08.849Z,32.99
2023-05-20T11:35:08.891Z,33.01
2023-05-20T11:36:19.951Z,33.03
2023-05-20T11:37:09.975Z,33.05
2023-05-20T11:38:08.842Z,33.08
2023-05-20T11:39:08.846Z,33.07
2023-05-20T11:40:08.823Z,33.09
2023-05-20T11:41:08.820Z,33.08
2023-05-20T11:42:08.805Z,33.08
2023-05-20T11:43:08.798Z,33.09
2023-05-20T11:44:08.796Z,33.10
2023-05-20T11:45:08.798Z,33.11
2023-05-20T11:46:08.809Z,33.12
2023-05-20T11:47:08.768Z,33.14
2023-05-20T11:48:08.826Z,33.14
2023-05-20T11:49:08.795Z,33.17
2023-05-20T11:50:08.754Z,33.18
2023-05-20T11:51:08.733Z,33.18
2023-05-20T11:52:08.728Z,33.18
2023-05-20T11:53:08.724Z,33.21
2023-05-20T11:54:08.706Z,33.22
2023-05-20T11:55:08.683Z,33.22
2023-05-20T11:56:08.682Z,33.22
2023-05-20T11:57:08.688Z,33.24
2023-05-20T11:58:08.665Z,33.23
2023-05-20T11:59:08.674Z,33.24
2023-05-20T12:00:08.673Z,33.22
2023-05-20T12:01:20.928Z,33.23
2023-05-20T12:02:09.674Z,33.24
2023-05-20T12:03:08.723Z,33.25
2023-05-20T12:04:08.710Z,33.25
2023-05-20T12:05:08.676Z,33.28
2023-05-20T12:06:08.619Z,33.29
2023-05-20T12:07:08.581Z,33.25
2023-05-20T12:08:08.588Z,33.27
2023-05-20T12:09:08.833Z,33.28
2023-05-20T12:10:08.541Z,33.28
2023-05-20T12:11:08.534Z,33.27
2023-05-20T12:12:08.510Z,33.24
2023-05-20T12:13:08.514Z,33.27
2023-05-20T12:14:08.535Z,33.28
2023-05-20T12:15:08.486Z,33.29
2023-05-20T12:16:08.544Z,33.29
2023-05-20T12:17:08.542Z,33.30
2023-05-20T12:18:08.642Z,33.31
2023-05-20T12:19:08.673Z,33.29
2023-05-20T12:20:08.626Z,33.31
2023-05-20T12:21:08.679Z,33.31
2023-05-20T12:22:08.679Z,33.34
2023-05-20T12:23:08.709Z,33.33
2023-05-20T12:24:08.741Z,33.32
2023-05-20T12:25:08.770Z,33.32
2023-05-20T12:26:08.809Z,33.33
2023-05-20T12:27:08.847Z,33.33
2023-05-20T12:28:08.868Z,33.31
2023-05-20T12:29:08.899Z,33.33
2023-05-20T12:30:08.935Z,33.33
2023-05-20T12:31:08.975Z,33.31
2023-05-20T12:32:09.004Z,33.31
2023-05-20T12:33:09.005Z,33.32
2023-05-20T12:34:09.019Z,33.32
2023-05-20T12:35:08.991Z,33.29
2023-05-20T12:36:08.983Z,33.30
2023-05-20T12:37:08.970Z,33.31
2023-05-20T12:38:08.960Z,33.29
2023-05-20T12:39:08.940Z,33.28
2023-05-20T12:40:08.929Z,33.27
2023-05-20T12:41:08.907Z,33.28
2023-05-20T12:42:08.880Z,33.30
2023-05-20T12:43:08.852Z,33.30
2023-05-20T12:44:08.849Z,33.30
2023-05-20T12:45:08.850Z,33.29
2023-05-20T12:46:08.822Z,33.30
2023-05-20T12:47:08.819Z,33.30
2023-05-20T12:48:08.809Z,33.31
2023-05-20T12:49:08.770Z,33.32
2023-05-20T12:50:08.756Z,33.34
2023-05-20T12:51:08.802Z,33.34
2023-05-20T12:52:18.856Z,33.34
2023-05-20T12:53:09.782Z,33.34